createdAt,value
2017-06-15T00:01:27.789Z,86.80
2017-06-15T00:03:55.917Z,86.60
2017-06-15T00:06:24.910Z,87.70
2017-06-15T00:08:53.065Z,86.80
2017-06-15T00:11:21.176Z,87.40
2017-06-15T00:13:49.424Z,87.80
2017-06-15T00:16:17.565Z,88.10
2017-06-15T00:18:45.907Z,87.80
2017-06-15T00:21:14.019Z,88.00
2017-06-15T00:23:42.170Z,87.80
2017-06-15T00:26:10.309Z,88.00
2017-06-15T00:28:38.447Z,87.90
2017-06-15T00:31:06.805Z,87.60
2017-06-15T00:33:34.921Z,87.50
2017-06-15T00:36:03.074Z,87.60
2017-06-15T00:38:31.229Z,87.70
2017-06-15T00:41:00.263Z,87.20
2017-06-15T00:43:28.424Z,87.80
2017-06-15T00:45:56.557Z,87.80
2017-06-15T00:48:25.536Z,87.20
2017-06-15T00:50:54.521Z,87.50
2017-06-15T00:53:22.635Z,87.30
2017-06-15T00:55:50.787Z,87.60
2017-06-15T00:58:18.935Z,87.50
2017-06-15T01:00:47.106Z,87.70
2017-06-15T01:03:15.445Z,88.00
2017-06-15T01:05:45.158Z,88.00
2017-06-15T01:08:13.753Z,88.00
2017-06-15T01:10:41.886Z,88.10
2017-06-15T01:13:10.114Z,88.60
2017-06-15T01:15:39.111Z,89.20
2017-06-15T01:18:07.235Z,89.60
2017-06-15T01:20:35.454Z,90.00
2017-06-15T01:23:03.628Z,90.30
2017-06-15T01:25:31.803Z,90.50
2017-06-15T01:28:00.855Z,90.50
2017-06-15T01:30:29.005Z,90.60
2017-06-15T01:32:57.328Z,90.50
2017-06-15T01:35:25.482Z,90.60
2017-06-15T01:37:53.666Z,90.60
2017-06-15T01:40:21.854Z,90.70
2017-06-15T01:42:49.978Z,90.90
2017-06-15T01:45:18.124Z,91.10
2017-06-15T01:47:46.245Z,91.10
2017-06-15T01:50:14.401Z,91.00
2017-06-15T01:52:42.525Z,90.90
2017-06-15T01:55:10.646Z,91.00
2017-06-15T01:57:39.542Z,91.20
2017-06-15T02:00:08.499Z,91.20
2017-06-15T02:02:36.677Z,91.40
2017-06-15T02:05:04.806Z,91.30
2017-06-15T02:07:32.954Z,91.30
2017-06-15T02:10:01.115Z,91.30
2017-06-15T02:12:29.249Z,91.30
2017-06-15T02:14:57.434Z,91.50
2017-06-15T02:17:26.321Z,91.70
2017-06-15T02:19:54.440Z,91.60
2017-06-15T02:22:22.646Z,91.90
2017-06-15T02:24:51.054Z,91.90
2017-06-15T02:27:19.312Z,92.10
2017-06-15T02:29:47.438Z,92.30
2017-06-15T02:32:15.684Z,92.50
2017-06-15T02:34:43.814Z,92.00
2017-06-15T02:37:12.022Z,92.00
2017-06-15T02:39:40.147Z,92.10
2017-06-15T02:42:08.289Z,92.20
2017-06-15T02:44:36.530Z,92.30
2017-06-15T02:47:04.938Z,92.30
2017-06-15T02:49:33.179Z,92.30
2017-06-15T02:52:01.456Z,92.50
2017-06-15T02:54:29.583Z,92.80
2017-06-15T02:56:57.728Z,92.90
2017-06-15T02:59:25.877Z,93.00
2017-06-15T03:01:54.029Z,93.10
2017-06-15T03:04:23.243Z,93.10
2017-06-15T03:06:51.466Z,93.30
2017-06-15T03:09:19.605Z,93.50
2017-06-15T03:11:47.734Z,93.40
2017-06-15T03:14:16.040Z,93.30
2017-06-15T03:16:44.917Z,93.00
2017-06-15T03:19:13.063Z,93.00
2017-06-15T03:21:41.197Z,93.10
2017-06-15T03:24:09.352Z,93.10
2017-06-15T03:26:37.509Z,92.90
2017-06-15T03:29:05.684Z,92.70
2017-06-15T03:31:34.633Z,93.00
2017-06-15T03:34:02.810Z,92.90
2017-06-15T03:36:30.991Z,93.00
2017-06-15T03:38:59.230Z,93.00
2017-06-15T03:41:28.223Z,93.20
2017-06-15T03:43:56.378Z,93.10
2017-06-15T03:46:24.520Z,93.60
2017-06-15T03:48:52.726Z,93.60
2017-06-15T03:51:20.901Z,93.50
2017-06-15T03:53:49.272Z,93.60
2017-06-15T03:56:17.564Z,93.90
2017-06-15T03:58:45.728Z,94.00
2017-06-15T04:01:13.843Z,93.90
2017-06-15T04:03:41.971Z,94.00
2017-06-15T04:06:10.211Z,93.90
2017-06-15T04:08:39.365Z,93.80
2017-06-15T04:11:07.591Z,93.70
2017-06-15T04:13:35.813Z,93.50
2017-06-15T04:16:04.003Z,93.30
2017-06-15T04:18:32.299Z,93.20
2017-06-15T04:21:00.432Z,93.10
2017-06-15T04:23:29.074Z,92.80
2017-06-15T04:25:57.227Z,92.50
2017-06-15T04:28:25.385Z,92.50
2017-06-15T04:30:53.581Z,92.70
2017-06-15T04:33:21.842Z,92.70
2017-06-15T04:35:49.989Z,92.70
2017-06-15T04:38:18.205Z,92.80
2017-06-15T04:40:46.770Z,92.70
2017-06-15T04:43:15.695Z,92.70
2017-06-15T04:45:44.235Z,92.50
2017-06-15T04:48:13.180Z,92.30
2017-06-15T04:50:41.396Z,92.30
2017-06-15T04:53:09.800Z,92.00
2017-06-15T04:55:37.970Z,91.90
2017-06-15T04:58:06.957Z,91.70
2017-06-15T05:00:36.264Z,91.60
2017-06-15T05:03:04.657Z,91.40
2017-06-15T05:05:32.792Z,91.30
2017-06-15T05:08:01.963Z,91.20
2017-06-15T05:10:30.190Z,90.90
2017-06-15T05:12:58.394Z,90.80
2017-06-15T05:15:26.560Z,90.60
2017-06-15T05:17:55.578Z,90.40
2017-06-15T05:20:23.780Z,90.10
2017-06-15T05:22:52.673Z,90.10
2017-06-15T05:25:20.896Z,90.50
2017-06-15T05:27:49.040Z,89.90
2017-06-15T05:30:17.178Z,89.60
2017-06-15T05:32:46.102Z,88.70
2017-06-15T05:35:14.289Z,88.60
2017-06-15T05:37:43.079Z,88.30
2017-06-15T05:40:12.478Z,88.10
2017-06-15T05:42:41.185Z,87.60
2017-06-15T05:45:09.342Z,87.80
2017-06-15T05:47:38.257Z,88.10
2017-06-15T05:50:06.449Z,87.30
2017-06-15T05:52:35.081Z,87.70
2017-06-15T05:55:03.446Z,87.30
2017-06-15T05:57:32.367Z,86.70
2017-06-15T06:00:00.536Z,86.50
2017-06-15T06:02:28.663Z,86.70
2017-06-15T06:04:56.803Z,86.20
2017-06-15T06:07:24.981Z,85.80
2017-06-15T06:09:53.168Z,85.70
2017-06-15T06:12:21.315Z,85.30
2017-06-15T06:14:49.481Z,85.00
2017-06-15T06:17:17.648Z,84.10
2017-06-15T06:19:45.812Z,82.60
2017-06-15T06:22:14.003Z,82.60
2017-06-15T06:24:42.155Z,82.30
2017-06-15T06:27:10.421Z,82.20
2017-06-15T06:29:38.619Z,82.30
2017-06-15T06:32:06.761Z,81.40
2017-06-15T06:34:35.036Z,81.30
2017-06-15T06:37:03.953Z,80.40
2017-06-15T06:39:32.117Z,80.30
2017-06-15T06:42:00.297Z,81.70
2017-06-15T06:44:28.449Z,82.60
2017-06-15T06:46:57.366Z,80.10
2017-06-15T06:49:25.487Z,79.90
2017-06-15T06:51:53.790Z,79.60
2017-06-15T06:54:21.993Z,80.40
2017-06-15T06:56:50.169Z,80.90
2017-06-15T06:59:18.339Z,80.60
2017-06-15T07:01:46.577Z,80.60
2017-06-15T07:04:14.730Z,81.20
2017-06-15T07:06:42.869Z,80.90
2017-06-15T07:09:11.842Z,77.20
2017-06-15T07:11:40.016Z,77.20
2017-06-15T07:14:08.162Z,76.70
2017-06-15T07:16:36.330Z,76.10
2017-06-15T07:19:05.074Z,76.00
2017-06-15T07:21:33.241Z,76.10
2017-06-15T07:24:01.860Z,77.30
2017-06-15T07:26:30.030Z,75.20
2017-06-15T07:28:58.170Z,73.50
2017-06-15T07:31:26.331Z,72.60
2017-06-15T07:33:54.467Z,72.10
2017-06-15T07:36:22.624Z,73.90
2017-06-15T07:38:50.785Z,74.20
2017-06-15T07:41:18.949Z,71.10
2017-06-15T07:43:48.335Z,69.90
2017-06-15T07:46:16.486Z,69.80
2017-06-15T07:48:44.732Z,67.60
2017-06-15T07:51:13.080Z,66.90
2017-06-15T07:53:41.195Z,67.30
2017-06-15T07:56:09.357Z,66.50
2017-06-15T07:58:37.470Z,66.40
2017-06-15T08:01:06.406Z,64.10
2017-06-15T08:03:34.600Z,64.00
2017-06-15T08:06:02.781Z,65.80
2017-06-15T08:08:30.956Z,64.10
2017-06-15T08:10:59.113Z,62.30
2017-06-15T08:13:27.303Z,63.00
2017-06-15T08:15:55.496Z,62.70
2017-06-15T08:18:23.709Z,62.90
2017-06-15T08:20:52.723Z,63.40
2017-06-15T08:23:20.847Z,62.70
2017-06-15T08:25:49.396Z,62.10
2017-06-15T08:28:17.522Z,60.00
2017-06-15T08:30:45.709Z,61.40
2017-06-15T08:33:13.940Z,63.30
2017-06-15T08:35:42.863Z,61.50
2017-06-15T08:38:11.016Z,60.60
2017-06-15T08:40:39.202Z,62.10
2017-06-15T08:43:07.388Z,60.80
2017-06-15T08:45:35.543Z,60.00
2017-06-15T08:48:03.730Z,61.60
2017-06-15T08:50:31.883Z,60.70
2017-06-15T08:53:00.005Z,60.20
2017-06-15T08:55:28.968Z,58.80
2017-06-15T08:57:57.086Z,58.30
2017-06-15T09:00:25.672Z,57.40
2017-06-15T09:02:53.833Z,56.70
2017-06-15T09:05:22.542Z,56.10
2017-06-15T09:07:50.682Z,57.70
2017-06-15T09:10:18.803Z,57.60
2017-06-15T09:12:46.962Z,58.80
2017-06-15T09:15:15.129Z,57.80
2017-06-15T09:17:43.334Z,56.30
2017-06-15T09:20:11.447Z,57.10
2017-06-15T09:22:39.748Z,55.90
2017-06-15T09:25:09.010Z,56.20
2017-06-15T09:27:37.191Z,57.40
2017-06-15T09:30:05.331Z,57.50
2017-06-15T09:32:33.474Z,57.70
2017-06-15T09:35:01.647Z,54.70
2017-06-15T09:37:29.768Z,54.10
2017-06-15T09:39:57.937Z,53.50
2017-06-15T09:42:26.084Z,54.00
2017-06-15T09:44:54.218Z,52.20
2017-06-15T09:47:22.390Z,51.20
2017-06-15T09:49:50.502Z,52.50
2017-06-15T09:52:18.988Z,53.80
2017-06-15T09:54:47.140Z,54.00
2017-06-15T09:57:15.378Z,52.00
2017-06-15T09:59:43.541Z,51.40
2017-06-15T10:02:12.445Z,54.10
2017-06-15T10:04:41.376Z,54.40
2017-06-15T10:07:09.576Z,54.30
2017-06-15T10:09:37.753Z,54.40
2017-06-15T10:12:05.894Z,54.80
2017-06-15T10:14:34.080Z,53.50
2017-06-15T10:17:03.168Z,51.00
2017-06-15T10:19:31.291Z,50.90
2017-06-15T10:21:59.424Z,50.40
2017-06-15T10:24:27.600Z,49.70
2017-06-15T10:26:55.771Z,51.40
2017-06-15T10:29:23.897Z,52.30
2017-06-15T10:31:52.052Z,52.70
2017-06-15T10:34:20.187Z,51.10
2017-06-15T10:36:48.365Z,51.90
2017-06-15T10:39:16.515Z,52.50
2017-06-15T10:41:44.631Z,52.40
2017-06-15T10:44:12.812Z,52.10
2017-06-15T10:46:40.977Z,51.90
2017-06-15T10:49:09.105Z,51.80
2017-06-15T10:51:37.265Z,52.10
2017-06-15T10:54:05.388Z,52.00
2017-06-15T10:56:33.573Z,50.60
2017-06-15T10:59:02.651Z,50.70
2017-06-15T11:01:30.859Z,50.60
2017-06-15T11:03:59.021Z,50.20
2017-06-15T11:06:27.180Z,50.70
2017-06-15T11:08:55.337Z,50.40
2017-06-15T11:11:23.459Z,50.40
2017-06-15T11:13:51.610Z,49.00
2017-06-15T11:16:19.741Z,48.50
2017-06-15T11:18:48.666Z,50.50
2017-06-15T11:21:16.834Z,50.50
2017-06-15T11:23:44.961Z,51.70
2017-06-15T11:26:13.099Z,50.90
2017-06-15T11:28:41.248Z,50.10
2017-06-15T11:31:09.403Z,50.30
2017-06-15T11:33:37.554Z,50.20
2017-06-15T11:36:05.720Z,50.80
2017-06-15T11:38:33.849Z,50.30
2017-06-15T11:41:01.981Z,50.30
2017-06-15T11:43:30.139Z,50.40
2017-06-15T11:45:58.264Z,50.30
2017-06-15T11:48:27.206Z,52.40
2017-06-15T11:50:55.345Z,51.70
2017-06-15T11:53:23.513Z,51.20
2017-06-15T11:55:51.662Z,50.90
2017-06-15T11:58:19.820Z,50.40
2017-06-15T12:00:47.943Z,50.00
2017-06-15T12:03:16.082Z,50.20
2017-06-15T12:05:44.296Z,49.90
2017-06-15T12:08:13.663Z,48.90
2017-06-15T12:10:41.850Z,48.80
2017-06-15T12:13:10.021Z,49.80
2017-06-15T12:15:38.158Z,50.00
2017-06-15T12:18:06.331Z,49.90
2017-06-15T12:20:34.561Z,49.20
2017-06-15T12:23:02.728Z,48.90
2017-06-15T12:25:30.848Z,48.20
2017-06-15T12:27:59.023Z,47.90
2017-06-15T12:30:27.144Z,48.20
2017-06-15T12:32:55.277Z,48.50
2017-06-15T12:35:23.616Z,48.20
2017-06-15T12:37:51.748Z,46.80
2017-06-15T12:40:19.921Z,46.50
2017-06-15T12:42:48.064Z,45.60
2017-06-15T12:45:16.962Z,46.00
2017-06-15T12:47:45.110Z,46.80
2017-06-15T12:50:13.241Z,47.50
2017-06-15T12:52:41.376Z,46.90
2017-06-15T12:55:09.506Z,46.30
2017-06-15T12:57:38.584Z,47.10
2017-06-15T13:00:06.738Z,46.40
2017-06-15T13:02:35.268Z,46.50
2017-06-15T13:05:03.449Z,47.50
2017-06-15T13:07:31.675Z,47.50
2017-06-15T13:09:59.943Z,47.10
2017-06-15T13:12:28.115Z,47.00
2017-06-15T13:14:56.284Z,46.70
2017-06-15T13:17:24.409Z,46.50
2017-06-15T13:19:52.597Z,45.30
2017-06-15T13:22:20.830Z,46.00
2017-06-15T13:24:48.973Z,45.70
2017-06-15T13:27:17.210Z,45.80
2017-06-15T13:29:45.369Z,45.70
2017-06-15T13:32:14.284Z,46.40
2017-06-15T13:34:42.482Z,46.40
2017-06-15T13:37:10.774Z,46.80
2017-06-15T13:39:39.569Z,46.50
2017-06-15T13:42:07.756Z,46.40
2017-06-15T13:44:35.938Z,45.70
2017-06-15T13:47:04.163Z,45.90
2017-06-15T13:49:32.367Z,46.30
2017-06-15T13:52:00.537Z,46.20
2017-06-15T13:54:28.712Z,46.20
2017-06-15T13:56:56.947Z,46.20
2017-06-15T13:59:25.904Z,47.10
2017-06-15T14:01:54.063Z,46.30
2017-06-15T14:04:22.328Z,45.80
2017-06-15T14:06:50.571Z,45.90
2017-06-15T14:09:19.473Z,46.00
2017-06-15T14:11:47.678Z,45.90
2017-06-15T14:14:15.864Z,46.30
2017-06-15T14:16:44.007Z,45.90
2017-06-15T14:19:12.261Z,46.70
2017-06-15T14:21:40.404Z,46.90
2017-06-15T14:24:08.616Z,46.00
2017-06-15T14:26:36.773Z,44.80
2017-06-15T14:29:04.954Z,45.30
2017-06-15T14:31:33.091Z,45.00
2017-06-15T14:34:01.217Z,45.20
2017-06-15T14:36:29.446Z,46.10
2017-06-15T14:38:57.597Z,45.40
2017-06-15T14:41:25.764Z,44.80
2017-06-15T14:43:53.907Z,45.30
2017-06-15T14:46:22.231Z,45.50
2017-06-15T14:48:50.363Z,45.60
2017-06-15T14:51:18.553Z,44.80
2017-06-15T14:53:47.467Z,44.90
2017-06-15T14:56:15.704Z,44.80
2017-06-15T14:58:44.039Z,45.30
2017-06-15T15:01:12.198Z,45.10
2017-06-15T15:03:40.398Z,45.50
2017-06-15T15:06:08.523Z,46.10
2017-06-15T15:09:02.441Z,46.30
2017-06-15T15:11:30.564Z,46.10
2017-06-15T15:13:59.467Z,46.90
2017-06-15T15:16:27.606Z,46.80
2017-06-15T15:18:55.729Z,47.00
2017-06-15T15:21:23.910Z,48.00
2017-06-15T15:23:52.065Z,47.90
2017-06-15T15:26:20.322Z,47.80
2017-06-15T15:28:48.461Z,47.30
2017-06-15T15:31:16.682Z,47.90
2017-06-15T15:33:44.890Z,47.90
2017-06-15T15:36:13.025Z,48.00
2017-06-15T15:38:41.183Z,48.30
2017-06-15T15:41:09.394Z,48.10
2017-06-15T15:43:37.602Z,49.60
2017-06-15T15:46:05.738Z,50.70
2017-06-15T15:48:33.857Z,50.80
2017-06-15T15:51:02.033Z,50.50
2017-06-15T15:53:30.620Z,51.40
2017-06-15T15:55:58.891Z,51.20
2017-06-15T15:58:27.025Z,50.50
2017-06-15T16:00:55.270Z,50.30
2017-06-15T16:03:23.429Z,50.50
2017-06-15T16:05:51.583Z,50.20
2017-06-15T16:08:19.897Z,49.80
2017-06-15T16:10:48.034Z,49.50
2017-06-15T16:13:16.269Z,48.90
2017-06-15T16:15:44.430Z,49.50
2017-06-15T16:18:12.845Z,50.30
2017-06-15T16:20:41.212Z,50.60
2017-06-15T16:23:09.346Z,50.60
2017-06-15T16:25:37.522Z,50.80
2017-06-15T16:28:05.667Z,50.60
2017-06-15T16:30:33.815Z,51.00
2017-06-15T16:33:01.955Z,51.50
2017-06-15T16:35:30.142Z,52.00
2017-06-15T16:37:58.252Z,52.60
2017-06-15T16:40:26.454Z,52.70
2017-06-15T16:42:54.663Z,53.30
2017-06-15T16:45:22.807Z,53.70
2017-06-15T16:47:51.125Z,53.80
2017-06-15T16:50:19.468Z,54.00
2017-06-15T16:52:47.702Z,54.00
2017-06-15T16:55:15.860Z,54.00
2017-06-15T16:57:43.996Z,53.80
2017-06-15T17:00:12.147Z,54.00
2017-06-15T17:02:40.272Z,54.10
2017-06-15T17:05:09.448Z,54.20
2017-06-15T17:07:38.026Z,54.20
2017-06-15T17:10:07.045Z,54.30
2017-06-15T17:12:35.217Z,54.50
2017-06-15T17:15:03.349Z,54.80
2017-06-15T17:17:31.490Z,55.10
2017-06-15T17:20:00.190Z,55.60
2017-06-15T17:22:28.341Z,56.60
2017-06-15T17:24:56.487Z,56.20
2017-06-15T17:27:24.703Z,56.60
2017-06-15T17:29:53.665Z,58.00
2017-06-15T17:32:21.785Z,58.80
2017-06-15T17:34:50.116Z,59.40
2017-06-15T17:37:18.268Z,60.40
2017-06-15T17:39:46.393Z,61.40
2017-06-15T17:42:15.306Z,61.80
2017-06-15T17:44:45.079Z,61.80
2017-06-15T17:47:13.233Z,62.00
2017-06-15T17:49:41.365Z,62.10
2017-06-15T17:52:09.519Z,65.00
2017-06-15T17:54:37.672Z,64.50
2017-06-15T17:57:06.893Z,65.40
2017-06-15T17:59:35.875Z,65.30
2017-06-15T18:02:04.008Z,65.20
2017-06-15T18:04:32.185Z,65.00
2017-06-15T18:07:00.299Z,64.20
2017-06-15T18:09:28.469Z,64.20
2017-06-15T18:11:56.676Z,63.60
2017-06-15T18:14:24.816Z,64.70
2017-06-15T18:16:52.980Z,64.80
2017-06-15T18:19:21.123Z,64.30
2017-06-15T18:21:50.029Z,65.00
2017-06-15T18:24:18.589Z,64.80
2017-06-15T18:26:46.821Z,65.20
2017-06-15T18:29:15.750Z,65.40
2017-06-15T18:31:44.299Z,65.40
2017-06-15T18:34:12.427Z,65.80
2017-06-15T18:36:40.615Z,65.60
2017-06-15T18:39:09.586Z,65.70
2017-06-15T18:41:38.622Z,66.10
2017-06-15T18:44:07.547Z,66.20
2017-06-15T18:46:35.678Z,66.70
2017-06-15T18:49:04.199Z,67.00
2017-06-15T18:51:33.322Z,67.30
2017-06-15T18:54:01.566Z,67.20
2017-06-15T18:56:30.166Z,67.60
2017-06-15T18:58:58.313Z,68.10
2017-06-15T19:01:26.482Z,68.40
2017-06-15T19:03:54.953Z,68.80
2017-06-15T19:06:23.105Z,68.80
2017-06-15T19:08:52.165Z,68.90
2017-06-15T19:11:20.702Z,69.20
2017-06-15T19:13:48.817Z,69.60
2017-06-15T19:16:17.197Z,69.90
2017-06-15T19:18:45.358Z,70.10
2017-06-15T19:21:13.529Z,70.20
2017-06-15T19:23:41.712Z,70.30
2017-06-15T19:26:09.862Z,70.40
2017-06-15T19:28:38.051Z,70.80
2017-06-15T19:31:06.189Z,71.50
2017-06-15T19:33:34.307Z,71.80
2017-06-15T19:36:02.466Z,72.00
2017-06-15T19:38:30.588Z,73.00
2017-06-15T19:40:58.742Z,74.70
2017-06-15T19:43:26.877Z,76.30
2017-06-15T19:45:55.042Z,77.80
2017-06-15T19:48:23.198Z,78.30
2017-06-15T19:50:51.329Z,80.00
2017-06-15T19:53:19.780Z,80.60
2017-06-15T19:55:47.965Z,80.90
2017-06-15T19:58:16.110Z,81.40
2017-06-15T20:00:44.278Z,82.20
2017-06-15T20:03:13.298Z,82.80
2017-06-15T20:05:41.429Z,83.10
2017-06-15T20:08:09.603Z,83.00
2017-06-15T20:10:38.719Z,82.80
2017-06-15T20:13:06.876Z,82.80
2017-06-15T20:15:35.118Z,83.00
2017-06-15T20:18:03.263Z,82.80
2017-06-15T20:20:31.477Z,82.50
2017-06-15T20:22:59.618Z,82.70
2017-06-15T20:25:43.243Z,82.40
2017-06-15T20:28:11.483Z,83.20
2017-06-15T20:30:39.602Z,82.90
2017-06-15T20:33:07.763Z,83.10
2017-06-15T20:35:35.901Z,83.10
2017-06-15T20:38:04.050Z,83.30
2017-06-15T20:40:32.166Z,83.10
2017-06-15T20:43:00.314Z,83.00
2017-06-15T20:45:28.524Z,82.70
2017-06-15T20:47:56.893Z,82.80
2017-06-15T20:50:25.045Z,82.60
2017-06-15T20:52:53.217Z,83.90
2017-06-15T20:55:21.962Z,83.80
2017-06-15T20:57:50.110Z,83.60
2017-06-15T21:00:18.280Z,83.40
2017-06-15T21:02:46.445Z,83.50
2017-06-15T21:05:14.762Z,84.00
2017-06-15T21:07:43.094Z,84.30
2017-06-15T21:10:11.391Z,84.50
2017-06-15T21:12:39.574Z,83.50
2017-06-15T21:15:08.798Z,84.50
2017-06-15T21:17:36.987Z,84.40
2017-06-15T21:20:05.197Z,85.00
2017-06-15T21:22:33.381Z,85.10
2017-06-15T21:25:02.302Z,85.50
2017-06-15T21:27:30.497Z,85.50
2017-06-15T21:29:58.673Z,85.70
2017-06-15T21:32:26.828Z,85.80
2017-06-15T21:34:55.008Z,85.70
2017-06-15T21:37:24.094Z,85.50
2017-06-15T21:39:52.261Z,85.70
2017-06-15T21:42:20.476Z,85.80
2017-06-15T21:44:48.609Z,86.90
2017-06-15T21:47:16.784Z,86.40
2017-06-15T21:49:44.926Z,86.50
2017-06-15T21:52:13.131Z,86.90
2017-06-15T21:54:41.277Z,87.20
2017-06-15T21:57:09.436Z,87.80
2017-06-15T21:59:37.596Z,88.00
2017-06-15T22:02:05.727Z,88.20
2017-06-15T22:04:34.726Z,88.20
2017-06-15T22:07:02.889Z,88.10
2017-06-15T22:09:31.181Z,88.50
2017-06-15T22:12:01.780Z,90.30
2017-06-15T22:14:29.976Z,90.60
2017-06-15T22:16:58.869Z,91.40
2017-06-15T22:19:27.007Z,92.10
2017-06-15T22:21:55.159Z,92.60
2017-06-15T22:24:23.268Z,93.20
2017-06-15T22:26:51.421Z,93.50
2017-06-15T22:29:19.559Z,94.60
2017-06-15T22:31:47.686Z,95.50
2017-06-15T22:34:15.848Z,96.70
2017-06-15T22:36:44.015Z,97.40
2017-06-15T22:39:12.166Z,98.00
2017-06-15T22:41:41.071Z,99.00
2017-06-15T22:44:09.191Z,99.00
2017-06-15T22:46:37.358Z,99.20
2017-06-15T22:49:05.502Z,99.50
2017-06-15T22:51:33.647Z,99.80
2017-06-15T22:54:01.770Z,99.50
2017-06-15T22:56:30.834Z,99.90
2017-06-15T22:58:58.983Z,99.90
2017-06-15T23:01:27.119Z,99.90
2017-06-15T23:03:55.325Z,99.90
2017-06-15T23:06:23.502Z,99.90
2017-06-15T23:08:51.657Z,99.90
2017-06-15T23:11:20.199Z,99.90
2017-06-15T23:13:48.377Z,99.90
2017-06-15T23:16:16.530Z,99.90
2017-06-15T23:18:45.585Z,99.90
2017-06-15T23:21:13.741Z,99.90
2017-06-15T23:23:41.889Z,99.90
2017-06-15T23:26:10.035Z,99.90
2017-06-15T23:28:38.173Z,99.90
2017-06-15T23:31:06.336Z,99.90
2017-06-15T23:33:35.377Z,99.90
2017-06-15T23:36:03.508Z,99.90
2017-06-15T23:38:31.665Z,99.90
2017-06-15T23:40:59.802Z,99.90
2017-06-15T23:43:27.992Z,99.90
2017-06-15T23:45:56.105Z,99.90
2017-06-15T23:48:24.250Z,99.90
2017-06-15T23:50:52.393Z,99.90
2017-06-15T23:53:20.560Z,99.90
2017-06-15T23:55:48.694Z,99.90
2017-06-15T23:58:16.807Z,99.90
